Otagawa — JD3046 — position and weather

sailwx.info

Track history (hours):
 
Tides and Currents Weather Stations Pressure Air Temp Water Temp Dewpoint Dewpoint Depression Visibility Wind Speed Wind Dir Waves Ship Positions

Otagawa

Last reported at 2014-Sep-25 14:10 UTC. Time now 2014-Oct-01 06:00 UTC.
Position N 35°02' E 139°44'.

Length 70 m; draft 4.6 m.

Type: Ship. MMSI: 431001328.

Date/timePositionNaut miles runAvg speedWind from/ knotsBaromVisibWave heightAir tempDewpointWater temp
2014-Sep-25 14:10N 35°02' E 139°44'710.7
2014-Sep-25 13:29N 35°10' E 139°46'1010.8
2014-Sep-25 12:33N 35°19' E 139°43'1110.4
2014-Sep-25 11:28N 35°29' E 139°50'5 1.3
2014-Sep-25 07:32N 35°34' E 139°50'0 0.0
2014-Sep-24 18:16N 35°34' E 139°50'4 5.6
2014-Sep-24 17:28N 35°37' E 139°46'0 0.0
2014-Sep-24 16:32N 35°37' E 139°46'0 0.0
2014-Sep-24 15:25N 35°37' E 139°46'0 0.0
2014-Sep-24 14:31N 35°37' E 139°46'30 0.6
2014-Sep-22 15:29N 35°07' E 139°41'1010.6
2014-Sep-22 14:32N 35°16' E 139°46'1010.2
2014-Sep-22 13:33N 35°25' E 139°42'1 1.3
2014-Sep-22 12:33N 35°26' E 139°41'7 7.1
2014-Sep-22 11:33N 35°30' E 139°49'8 7.4
2014-Sep-22 10:32N 35°37' E 139°46'4 0.7
2014-Sep-22 04:33N 35°34' E 139°49'4 4.5
2014-Sep-22 03:33N 35°29' E 139°49'7 6.5
2014-Sep-22 02:33N 35°24' E 139°46'1010.0
2014-Sep-22 01:33N 35°14' E 139°47'  
2014-Sep-18 23:27N 35°04' E 140°18'1011.8
2014-Sep-18 22:33N 34°58' E 140°07'20 8.2
2014-Sep-18 20:09N 35°00' E 139°43'610.7
2014-Sep-18 19:33N 35°06' E 139°45'1111.1
2014-Sep-18 18:33N 35°17' E 139°44'10 9.7
2014-Sep-18 17:33N 35°27' E 139°47'8 8.4
2014-Sep-18 16:33N 35°35' E 139°47'1 1.0
2014-Sep-18 15:33N 35°36' E 139°46'0 0.0
2014-Sep-18 14:33N 35°36' E 139°46'3 3.5
2014-Sep-18 13:33N 35°34' E 139°49'8 7.6
2014-Sep-18 12:33N 35°27' E 139°45'3 3.4
2014-Sep-18 11:33N 35°26' E 139°41'0 0.0
2014-Sep-18 10:33N 35°26' E 139°41'1 0.5
2014-Sep-18 09:33N 35°27' E 139°41'4 4.3
2014-Sep-18 08:33N 35°29' E 139°45'0 0.0
2014-Sep-18 07:33N 35°29' E 139°45'0 0.0
2014-Sep-18 06:33N 35°29' E 139°45'0 0.0
2014-Sep-18 05:33N 35°29' E 139°45'0 0.0
2014-Sep-18 04:33N 35°29' E 139°45'5 5.0
2014-Sep-18 03:33N 35°24' E 139°46'10 9.7
2014-Sep-18 02:33N 35°15' E 139°47'1010.1
2014-Sep-18 01:33N 35°05' E 139°44'60 1.9
2014-Sep-16 18:07N 35°02' E 138°30'47 1.9
2014-Sep-15 17:17N 34°60' E 139°28'810.9
2014-Sep-15 16:32N 35°04' E 139°36'1010.6
2014-Sep-15 15:33N 35°12' E 139°45'1110.9
2014-Sep-15 14:33N 35°22' E 139°42'  
Track history (hours):
 
Tides and Currents Weather Stations Pressure Air Temp Water Temp Dewpoint Dewpoint Depression Visibility Wind Speed Wind Dir Waves Ship Positions

Otagawa

Last reported at 2014-Sep-25 14:10 UTC. Time now 2014-Oct-01 06:00 UTC.
Position N 35°02' E 139°44'.

Length 70 m; draft 4.6 m.

Type: Ship. MMSI: 431001328.

Date/timePositionNaut miles runAvg speedWind from/ knotsBaromVisibWave heightAir tempDewpointWater temp
2014-Sep-25 14:10N 35°02' E 139°44'710.7
2014-Sep-25 13:29N 35°10' E 139°46'1010.8
2014-Sep-25 12:33N 35°19' E 139°43'1110.4
2014-Sep-25 11:28N 35°29' E 139°50'5 1.3
2014-Sep-25 07:32N 35°34' E 139°50'0 0.0
2014-Sep-24 18:16N 35°34' E 139°50'4 5.6
2014-Sep-24 17:28N 35°37' E 139°46'0 0.0
2014-Sep-24 16:32N 35°37' E 139°46'0 0.0
2014-Sep-24 15:25N 35°37' E 139°46'0 0.0
2014-Sep-24 14:31N 35°37' E 139°46'30 0.6
2014-Sep-22 15:29N 35°07' E 139°41'1010.6
2014-Sep-22 14:32N 35°16' E 139°46'1010.2
2014-Sep-22 13:33N 35°25' E 139°42'1 1.3
2014-Sep-22 12:33N 35°26' E 139°41'7 7.1
2014-Sep-22 11:33N 35°30' E 139°49'8 7.4
2014-Sep-22 10:32N 35°37' E 139°46'4 0.7
2014-Sep-22 04:33N 35°34' E 139°49'4 4.5
2014-Sep-22 03:33N 35°29' E 139°49'7 6.5
2014-Sep-22 02:33N 35°24' E 139°46'1010.0
2014-Sep-22 01:33N 35°14' E 139°47'  
2014-Sep-18 23:27N 35°04' E 140°18'1011.8
2014-Sep-18 22:33N 34°58' E 140°07'20 8.2
2014-Sep-18 20:09N 35°00' E 139°43'610.7
2014-Sep-18 19:33N 35°06' E 139°45'1111.1
2014-Sep-18 18:33N 35°17' E 139°44'10 9.7
2014-Sep-18 17:33N 35°27' E 139°47'8 8.4
2014-Sep-18 16:33N 35°35' E 139°47'1 1.0
2014-Sep-18 15:33N 35°36' E 139°46'0 0.0
2014-Sep-18 14:33N 35°36' E 139°46'3 3.5
2014-Sep-18 13:33N 35°34' E 139°49'8 7.6
2014-Sep-18 12:33N 35°27' E 139°45'3 3.4
2014-Sep-18 11:33N 35°26' E 139°41'0 0.0
2014-Sep-18 10:33N 35°26' E 139°41'1 0.5
2014-Sep-18 09:33N 35°27' E 139°41'4 4.3
2014-Sep-18 08:33N 35°29' E 139°45'0 0.0
2014-Sep-18 07:33N 35°29' E 139°45'0 0.0
2014-Sep-18 06:33N 35°29' E 139°45'0 0.0
2014-Sep-18 05:33N 35°29' E 139°45'0 0.0
2014-Sep-18 04:33N 35°29' E 139°45'5 5.0
2014-Sep-18 03:33N 35°24' E 139°46'10 9.7
2014-Sep-18 02:33N 35°15' E 139°47'1010.1
2014-Sep-18 01:33N 35°05' E 139°44'60 1.9
2014-Sep-16 18:07N 35°02' E 138°30'47 1.9
2014-Sep-15 17:17N 34°60' E 139°28'810.9
2014-Sep-15 16:32N 35°04' E 139°36'1010.6
2014-Sep-15 15:33N 35°12' E 139°45'1110.9
2014-Sep-15 14:33N 35°22' E 139°42'  

Dump ship's entire track history